Time;durP1;ratioP1;P1;durP2;ratioP2;P2;SDS_P1;SDS_P2;PMS_P1;PMS_P2;Temp;Humidity;BMP_temperature;BMP_pressure;BME280_temperature;BME280_humidity;BME280_pressure;Samples;Min_cycle;Max_cycle;Signal;HPM_P1;HPM_P2
2022/12/14 00:01:21;;;;;;;44.07;17.20;;;-3.80;1.00;;;;;;10380020;28;20232;-77
2022/12/14 00:07:08;;;;;;;60.17;17.87;;;-3.80;1.00;;;;;;10392796;28;20268;-81
2022/12/14 00:12:29;;;;;;;43.60;14.77;;;;;;;;;;10393626;28;20425;-80
2022/12/14 00:17:51;;;;;;;40.00;15.57;;;-4.00;1.00;;;;;;10384913;28;20259;-79
2022/12/14 00:23:12;;;;;;;36.13;14.07;;;-4.10;99.90;;;;;;10401231;28;20235;-79
2022/12/14 00:28:33;;;;;;;47.63;16.93;;;;;;;;;;10386503;28;20414;-81
2022/12/14 00:33:54;;;;;;;81.70;26.07;;;-4.20;1.00;;;;;;10373091;28;20384;-74
2022/12/14 00:39:15;;;;;;;67.37;20.23;;;-4.30;1.00;;;;;;10400464;28;20193;-78
2022/12/14 00:44:37;;;;;;;72.77;22.53;;;-4.30;99.90;;;;;;10386490;28;20418;-77
2022/12/14 00:49:58;;;;;;;50.57;16.00;;;-4.30;1.00;;;;;;10386007;28;20220;-79
2022/12/14 00:55:20;;;;;;;51.77;18.10;;;-4.40;1.00;;;;;;10372587;28;20300;-78
2022/12/14 01:00:43;;;;;;;75.20;24.53;;;-4.40;1.00;;;;;;10385931;28;20216;-78
2022/12/14 01:06:04;;;;;;;70.57;20.23;;;-4.50;99.90;;;;;;10398831;28;20282;-78
2022/12/14 01:11:25;;;;;;;70.03;21.73;;;-4.50;1.00;;;;;;10385407;28;20193;-76
2022/12/14 01:16:47;;;;;;;68.90;18.80;;;-4.60;1.00;;;;;;10385094;28;20197;-78
2022/12/14 01:22:09;;;;;;;50.63;17.67;;;-4.60;1.00;;;;;;10384702;28;20224;-76
2022/12/14 01:27:30;;;;;;;53.47;21.97;;;-4.60;99.90;;;;;;10387616;28;20196;-79
2022/12/14 01:32:52;;;;;;;59.63;23.83;;;-4.60;1.00;;;;;;10399212;28;20230;-77
2022/12/14 01:38:13;;;;;;;49.13;17.73;;;-4.80;1.00;;;;;;10384324;28;20193;-78
2022/12/14 01:43:57;;;;;;;38.47;15.20;;;-4.80;1.00;;;;;;10399156;28;20404;-79
2022/12/14 01:49:21;;;;;;;54.80;18.37;;;-4.80;1.00;;;;;;10397769;28;20189;-77
2022/12/14 01:55:04;;;;;;;81.87;23.87;;;-4.70;1.00;;;;;;10370144;28;20193;-78
2022/12/14 02:00:25;;;;;;;64.93;23.20;;;-4.80;1.00;;;;;;10398576;28;20498;-78
2022/12/14 02:05:51;;;;;;;59.70;19.80;;;-4.80;1.00;;;;;;10382874;28;20234;-78
2022/12/14 02:11:12;;;;;;;40.67;14.93;;;-4.90;99.90;;;;;;10397245;28;20201;-79
2022/12/14 02:16:34;;;;;;;40.87;14.37;;;-4.90;99.90;;;;;;10397349;28;20189;-77
2022/12/14 02:22:08;;;;;;;41.57;15.33;;;-4.70;61.20;;;;;;10382707;28;20236;-80
2022/12/14 02:27:47;;;;;;;34.87;13.90;;;-4.60;1.00;;;;;;10395905;28;20198;-78
2022/12/14 02:33:11;;;;;;;39.10;14.87;;;-4.60;99.90;;;;;;10382002;28;20237;-77
2022/12/14 02:39:22;;;;;;;34.33;12.53;;;-4.60;1.00;;;;;;10367743;28;20195;-78
2022/12/14 02:45:13;;;;;;;29.27;12.63;;;-4.60;1.00;;;;;;10348554;28;20247;-78
2022/12/14 02:50:45;;;;;;;22.43;12.37;;;-4.90;99.90;;;;;;10386839;28;20210;-79
2022/12/14 02:56:10;;;;;;;19.40;10.73;;;-5.10;99.90;;;;;;10348481;28;20203;-78
2022/12/14 03:01:33;;;;;;;19.73;9.77;;;-5.40;99.90;;;;;;10339565;28;20422;-78
2022/12/14 03:07:21;;;;;;;22.60;11.40;;;-5.40;1.00;;;;;;10343681;28;20220;-79
2022/12/14 03:12:49;;;;;;;23.13;13.13;;;-5.40;90.70;;;;;;10339352;28;20205;-79
2022/12/14 03:18:14;;;;;;;23.80;11.43;;;-5.50;99.90;;;;;;10383589;28;20197;-77
2022/12/14 03:23:39;;;;;;;18.93;9.73;;;-5.50;1.00;;;;;;10359745;28;20235;-77
2022/12/14 03:29:11;;;;;;;19.00;10.97;;;-5.50;99.90;;;;;;10365372;28;20337;-77
2022/12/14 03:35:00;;;;;;;22.27;12.53;;;-5.60;1.00;;;;;;10370509;28;20209;-78
2022/12/14 03:40:30;;;;;;;18.40;10.70;;;-5.80;1.00;;;;;;10367641;28;20285;-77
2022/12/14 03:46:04;;;;;;;19.27;11.33;;;-5.80;1.00;;;;;;10364068;28;20225;-77
2022/12/14 03:51:37;;;;;;;26.07;15.97;;;;;;;;;;10400185;28;20248;-77
2022/12/14 03:57:07;;;;;;;23.93;12.00;;;-6.00;99.90;;;;;;10402036;28;20193;-78
2022/12/14 04:02:43;;;;;;;19.40;10.37;;;-6.10;99.90;;;;;;10402237;28;20240;-78
2022/12/14 04:08:21;;;;;;;19.27;10.40;;;-6.30;1.00;;;;;;10387088;28;20205;-79
2022/12/14 04:19:59;;;;;;;22.73;11.10;;;-6.30;99.90;;;;;;10385892;28;20268;-78
2022/12/14 04:31:14;;;;;;;18.70;10.67;;;-6.30;1.00;;;;;;10400470;28;20229;-76
2022/12/14 04:36:43;;;;;;;27.83;13.73;;;-6.40;5.40;;;;;;10400178;28;20197;-78
2022/12/14 04:42:07;;;;;;;52.13;21.97;;;-6.50;1.00;;;;;;10400315;28;20540;-78
2022/12/14 04:47:33;;;;;;;42.23;19.83;;;-6.40;1.00;;;;;;10400865;28;20190;-78
2022/12/14 04:53:02;;;;;;;36.33;18.70;;;-6.40;1.00;;;;;;10386418;28;20221;-79
2022/12/14 04:58:27;;;;;;;39.60;20.07;;;-6.40;1.00;;;;;;10399371;28;20232;-80
2022/12/14 05:04:00;;;;;;;42.30;20.63;;;-6.40;99.90;;;;;;10385028;28;20235;-79
2022/12/14 05:09:29;;;;;;;41.07;18.53;;;-6.40;1.00;;;;;;10384918;28;20202;-79
2022/12/14 05:15:01;;;;;;;44.50;21.23;;;-6.40;1.00;;;;;;10399212;28;20212;-80
2022/12/14 05:20:23;;;;;;;45.60;20.00;;;-6.40;99.90;;;;;;10394899;28;20531;-81
2022/12/14 05:25:44;;;;;;;52.07;20.93;;;-6.30;1.00;;;;;;10371653;28;20221;-78
2022/12/14 05:31:05;;;;;;;146.40;62.90;;;-6.20;99.90;;;;;;10399179;28;20228;-79
2022/12/14 05:36:26;;;;;;;103.63;47.50;;;-6.30;99.90;;;;;;10398445;28;20193;-78
2022/12/14 05:41:47;;;;;;;38.07;19.77;;;-6.30;1.00;;;;;;10383931;28;20229;-80
2022/12/14 05:47:09;;;;;;;20.60;12.27;;;-6.40;1.00;;;;;;10398686;28;20216;-80
2022/12/14 05:52:30;;;;;;;21.60;11.10;;;-6.50;1.00;;;;;;10397632;28;20458;-79
2022/12/14 05:57:52;;;;;;;29.77;12.97;;;-6.40;1.00;;;;;;10398320;28;20272;-78
2022/12/14 06:03:13;;;;;;;42.97;19.20;;;-6.50;1.00;;;;;;10397014;28;20231;-79
2022/12/14 06:08:43;;;;;;;41.77;19.50;;;-6.50;1.00;;;;;;10382509;28;20255;-77
2022/12/14 06:14:05;;;;;;;45.60;19.47;;;-6.40;1.00;;;;;;10395798;28;20211;-80
2022/12/14 06:19:26;;;;;;;49.27;22.47;;;-6.40;99.90;;;;;;10397033;28;20223;-79
2022/12/14 06:24:47;;;;;;;48.43;21.93;;;-6.40;1.00;;;;;;10390024;28;20222;-79
2022/12/14 06:30:10;;;;;;;53.63;23.20;;;-6.40;1.00;;;;;;10396531;28;20229;-79
2022/12/14 06:35:31;;;;;;;49.57;25.73;;;-6.40;99.90;;;;;;10395518;28;20251;-79
2022/12/14 06:40:52;;;;;;;59.37;30.00;;;-6.40;1.00;;;;;;10395315;28;20197;-79
2022/12/14 06:46:15;;;;;;;106.13;41.40;;;-6.50;99.90;;;;;;10394959;28;20252;-78
2022/12/14 06:51:39;;;;;;;125.80;46.60;;;-6.50;42.30;;;;;;10381206;28;20435;-79
2022/12/14 06:57:01;;;;;;;223.97;89.27;;;-6.40;1.00;;;;;;10380971;28;20229;-80
2022/12/14 07:02:29;;;;;;;134.57;54.83;;;-6.60;63.80;;;;;;10395152;28;20821;-80
2022/12/14 07:07:53;;;;;;;243.40;77.17;;;-7.10;1.00;;;;;;10377489;28;20492;-80
2022/12/14 07:13:15;;;;;;;138.13;51.50;;;;;;;;;;10381187;28;20586;-80
2022/12/14 07:18:37;;;;;;;99.73;38.23;;;;;;;;;;10394619;28;20422;-81
2022/12/14 07:24:00;;;;;;;98.67;36.07;;;-7.10;1.00;;;;;;10353209;28;20466;-81
2022/12/14 07:29:21;;;;;;;119.20;40.60;;;-7.10;99.90;;;;;;10384411;28;20231;-80
2022/12/14 07:34:42;;;;;;;95.47;34.73;;;-7.10;1.00;;;;;;10394377;28;20199;-80
2022/12/14 07:40:04;;;;;;;73.20;29.50;;;-7.20;99.90;;;;;;10343247;28;20212;-81
2022/12/14 07:45:25;;;;;;;79.67;34.20;;;-7.00;1.00;;;;;;10339556;28;20234;-81
2022/12/14 07:50:47;;;;;;;63.40;28.73;;;-6.90;1.00;;;;;;10353486;28;20213;-81
2022/12/14 07:56:12;;;;;;;78.80;29.27;;;-6.80;1.00;;;;;;10371011;28;20193;-81
2022/12/14 08:01:35;;;;;;;106.27;44.67;;;-6.80;99.90;;;;;;10393977;28;20492;-80
2022/12/14 08:06:56;;;;;;;107.40;45.73;;;-6.70;99.90;;;;;;10378960;28;20524;-81
2022/12/14 08:12:21;;;;;;;111.80;47.07;;;-6.40;1.00;;;;;;10379658;28;20227;-82
2022/12/14 08:17:42;;;;;;;102.77;44.23;;;-6.10;10.70;;;;;;10377521;28;20205;-81
2022/12/14 08:23:04;;;;;;;56.30;27.30;;;-5.90;1.00;;;;;;10380249;28;20243;-82
2022/12/14 08:28:26;;;;;;;54.63;28.37;;;-5.40;88.90;;;;;;10386496;28;20198;-82
2022/12/14 08:33:48;;;;;;;71.37;35.93;;;-5.20;99.90;;;;;;10391072;28;20217;-92
2022/12/14 08:39:10;;;;;;;84.47;37.07;;;-5.00;1.00;;;;;;10367027;28;20511;-82
2022/12/14 08:44:31;;;;;;;71.50;31.27;;;-4.80;61.20;;;;;;10395451;28;20230;-83
2022/12/14 08:49:52;;;;;;;79.27;36.83;;;-4.70;1.00;;;;;;10395965;28;20205;-83
2022/12/14 08:55:14;;;;;;;72.10;33.43;;;-4.90;1.00;;;;;;10381334;28;20197;-85
2022/12/14 09:00:38;;;;;;;103.10;42.80;;;-4.90;99.90;;;;;;10396187;28;20256;-77
2022/12/14 09:06:05;;;;;;;78.03;31.63;;;-5.00;6.20;;;;;;10379429;28;20474;-79
2022/12/14 09:11:26;;;;;;;66.47;30.87;;;-5.10;99.90;;;;;;10395465;28;20446;-80
2022/12/14 09:16:47;;;;;;;62.33;25.13;;;-5.40;1.00;;;;;;10393020;28;20208;-80
2022/12/14 09:22:08;;;;;;;81.00;33.07;;;-5.30;99.90;;;;;;10393058;28;20229;-80
2022/12/14 09:27:29;;;;;;;77.00;30.60;;;-5.10;1.00;;;;;;10392637;28;20276;-78
2022/12/14 09:32:51;;;;;;;80.50;31.67;;;-5.10;1.00;;;;;;10379855;28;20251;-77
2022/12/14 09:38:12;;;;;;;57.93;25.07;;;-5.00;99.90;;;;;;10394060;28;20213;-78
2022/12/14 09:43:36;;;;;;;57.33;27.47;;;-4.90;99.90;;;;;;10392814;28;20279;-76
2022/12/14 09:49:01;;;;;;;63.23;28.90;;;-4.80;99.90;;;;;;10365158;28;20276;-79
2022/12/14 09:54:27;;;;;;;72.63;30.80;;;-4.80;1.00;;;;;;10392533;28;20197;-79
2022/12/14 09:59:48;;;;;;;78.07;31.40;;;-4.70;1.00;;;;;;10353854;28;20285;-78
2022/12/14 10:05:23;;;;;;;77.40;33.20;;;-4.40;1.00;;;;;;10362285;28;20252;-78
2022/12/14 10:11:20;;;;;;;91.83;40.00;;;-4.20;1.00;;;;;;10379170;28;20488;-84
2022/12/14 10:17:13;;;;;;;55.40;25.93;;;-4.10;1.00;;;;;;10378111;28;20193;-85
2022/12/14 10:22:38;;;;;;;73.90;29.90;;;-4.20;99.90;;;;;;10377516;28;20228;-81
2022/12/14 10:28:03;;;;;;;62.20;27.83;;;-3.90;1.00;;;;;;10337418;28;20199;-78
2022/12/14 10:33:32;;;;;;;59.43;25.93;;;-3.80;1.00;;;;;;10356751;28;20194;-78
2022/12/14 10:38:57;;;;;;;58.10;26.07;;;-3.70;1.00;;;;;;10390193;28;20545;-78
2022/12/14 10:44:26;;;;;;;59.60;27.20;;;-3.80;1.00;;;;;;10389870;28;20425;-78
2022/12/14 10:49:53;;;;;;;52.50;27.50;;;-3.70;62.10;;;;;;10390778;28;20212;-79
2022/12/14 10:55:20;;;;;;;69.03;34.33;;;-3.50;99.90;;;;;;10391345;28;20190;-79
2022/12/14 11:00:41;;;;;;;55.03;28.83;;;-3.70;99.90;;;;;;10389104;28;20209;-78
2022/12/14 11:06:14;;;;;;;47.60;24.40;;;-3.60;99.90;;;;;;10375626;28;20598;-82
2022/12/14 11:11:35;;;;;;;69.57;32.27;;;-3.50;99.90;;;;;;10375948;28;20202;-81
2022/12/14 11:16:57;;;;;;;46.63;22.57;;;-3.40;1.00;;;;;;10376121;28;20232;-77
2022/12/14 11:22:18;;;;;;;36.20;18.10;;;-3.20;99.90;;;;;;10374993;28;20248;-79
2022/12/14 11:27:42;;;;;;;48.07;25.03;;;-3.00;99.90;;;;;;10388873;28;20218;-81
2022/12/14 11:33:03;;;;;;;37.27;18.80;;;-3.00;99.90;;;;;;10390808;28;20312;-77
2022/12/14 11:38:27;;;;;;;38.53;20.40;;;-3.10;1.00;;;;;;10351463;28;20383;-80
2022/12/14 11:44:02;;;;;;;41.87;21.17;;;-3.00;51.80;;;;;;10353345;28;20228;-81
2022/12/14 11:49:26;;;;;;;41.10;21.33;;;-3.00;1.00;;;;;;10389437;28;20280;-84
2022/12/14 11:55:11;;;;;;;44.30;21.57;;;-2.90;1.00;;;;;;10376120;28;20241;-85
2022/12/14 12:00:46;;;;;;;34.73;17.53;;;-2.90;99.90;;;;;;10389502;28;20515;-79
2022/12/14 12:06:14;;;;;;;40.80;18.43;;;-2.60;1.00;;;;;;10386967;28;20237;-80
2022/12/14 12:11:35;;;;;;;31.43;16.63;;;-2.80;39.10;;;;;;10389931;28;20201;-77
2022/12/14 12:16:57;;;;;;;35.53;19.73;;;-2.90;99.90;;;;;;10398245;28;20213;-82
2022/12/14 12:22:20;;;;;;;53.07;24.30;;;-2.90;99.90;;;;;;10381593;28;20212;-81
2022/12/14 12:27:41;;;;;;;32.33;18.07;;;-2.90;1.00;;;;;;10395729;28;20208;-82
2022/12/14 12:33:33;;;;;;;44.37;21.10;;;-2.70;99.90;;;;;;10395961;28;20256;-79
2022/12/14 12:38:58;;;;;;;46.00;21.00;;;-2.70;1.00;;;;;;10395433;28;20267;-79
2022/12/14 12:44:20;;;;;;;36.90;20.20;;;-2.90;1.00;;;;;;10394975;28;20241;-79
2022/12/14 12:49:41;;;;;;;46.53;25.10;;;-2.80;1.00;;;;;;10395058;28;20200;-80
2022/12/14 12:55:13;;;;;;;49.73;23.67;;;-2.80;1.00;;;;;;10378620;28;20424;-79
2022/12/14 13:00:37;;;;;;;59.13;30.87;;;-2.70;78.10;;;;;;10395105;28;20227;-81
2022/12/14 13:06:08;;;;;;;40.20;21.43;;;-2.70;99.90;;;;;;10394098;28;20527;-80
2022/12/14 13:11:35;;;;;;;37.90;20.73;;;-2.90;99.90;;;;;;10396219;28;20557;-79
2022/12/14 13:17:01;;;;;;;76.83;34.40;;;-3.30;90.20;;;;;;10396016;28;20200;-82
2022/12/14 13:22:33;;;;;;;96.30;41.87;;;-3.30;1.00;;;;;;10389722;28;20204;-80
2022/12/14 13:28:06;;;;;;;48.30;25.10;;;-3.40;99.90;;;;;;10386431;28;20228;-77
2022/12/14 13:33:58;;;;;;;109.40;50.30;;;-3.20;1.00;;;;;;10354472;28;20407;-77
2022/12/14 13:39:40;;;;;;;58.53;28.93;;;-3.40;99.90;;;;;;10378637;28;20202;-80
2022/12/14 13:45:04;;;;;;;58.57;29.90;;;-3.50;1.00;;;;;;10379563;28;20224;-78
2022/12/14 13:50:39;;;;;;;49.93;24.27;;;-3.50;1.00;;;;;;10378544;28;20392;-77
2022/12/14 13:56:06;;;;;;;43.17;22.83;;;-3.50;99.90;;;;;;10394186;28;20196;-79
2022/12/14 14:01:45;;;;;;;58.70;27.37;;;-3.60;1.00;;;;;;10391968;28;20288;-78
2022/12/14 14:07:33;;;;;;;52.60;26.67;;;-3.70;99.90;;;;;;10378368;28;20268;-80
2022/12/14 14:12:55;;;;;;;95.83;40.87;;;-3.80;1.00;;;;;;10388093;28;20517;-78
2022/12/14 14:18:24;;;;;;;102.33;47.40;;;-3.90;1.00;;;;;;10374468;28;20216;-81
2022/12/14 14:24:00;;;;;;;139.20;54.57;;;-3.90;1.00;;;;;;10372747;28;20248;-81
2022/12/14 14:29:27;;;;;;;143.03;57.37;;;-3.90;1.00;;;;;;10345081;28;20304;-79
2022/12/14 14:34:49;;;;;;;118.93;77.47;;;-3.90;99.90;;;;;;10357370;28;20216;-80
2022/12/14 14:40:12;;;;;;;100.13;56.07;;;-4.10;99.90;;;;;;10344156;28;20278;-78
2022/12/14 14:45:53;;;;;;;90.70;52.87;;;-4.20;99.90;;;;;;10388145;28;20295;-84
2022/12/14 14:51:31;;;;;;;59.77;30.77;;;-4.30;1.00;;;;;;10373528;28;20201;-78
2022/12/14 14:56:53;;;;;;;88.90;40.13;;;-4.50;1.00;;;;;;10390748;28;20208;-78
2022/12/14 15:02:26;;;;;;;97.73;44.57;;;-4.50;1.00;;;;;;10391411;28;20195;-76
2022/12/14 15:07:48;;;;;;;68.80;34.90;;;-4.60;1.00;;;;;;10390124;28;20829;-77
2022/12/14 15:13:27;;;;;;;42.07;24.13;;;-4.60;1.00;;;;;;10390744;28;20489;-77
2022/12/14 15:18:48;;;;;;;58.63;27.97;;;-4.70;1.00;;;;;;10389525;28;20197;-76
2022/12/14 15:24:13;;;;;;;62.00;32.43;;;-4.80;1.00;;;;;;10373516;28;20529;-77
2022/12/14 15:29:35;;;;;;;78.23;39.37;;;-4.70;1.00;;;;;;10403622;28;20555;-77
2022/12/14 15:35:02;;;;;;;73.13;40.17;;;-4.70;1.00;;;;;;10389375;28;20200;-78
2022/12/14 15:40:26;;;;;;;93.27;47.00;;;-4.80;55.20;;;;;;10390332;28;20228;-79
2022/12/14 15:45:54;;;;;;;99.50;49.67;;;-4.80;1.00;;;;;;10364003;28;20309;-79
2022/12/14 15:51:17;;;;;;;89.20;43.47;;;-4.90;1.00;;;;;;10397671;28;20200;-80
2022/12/14 15:56:39;;;;;;;94.63;44.83;;;-5.00;1.00;;;;;;10384011;28;20495;-81
2022/12/14 16:02:04;;;;;;;95.47;52.47;;;-5.00;1.00;;;;;;10372972;28;20202;-78
2022/12/14 16:07:37;;;;;;;227.37;112.07;;;-5.10;1.00;;;;;;10404529;28;20268;-78
2022/12/14 16:13:14;;;;;;;159.73;92.50;;;-5.10;1.00;;;;;;10398368;28;20205;-80
2022/12/14 16:18:44;;;;;;;84.37;42.50;;;-5.20;1.00;;;;;;10399216;28;20266;-79
2022/12/14 16:24:22;;;;;;;63.80;32.00;;;-5.20;1.00;;;;;;10378383;28;20256;-82
2022/12/14 16:30:15;;;;;;;59.47;30.47;;;-5.20;1.00;;;;;;10387407;28;20248;-78
2022/12/14 16:35:37;;;;;;;50.57;27.43;;;-5.30;1.00;;;;;;10373624;28;20228;-81
2022/12/14 16:41:01;;;;;;;69.30;34.23;;;-5.40;1.00;;;;;;10401237;28;20480;-81
2022/12/14 16:46:22;;;;;;;78.73;40.93;;;-5.50;28.30;;;;;;10400284;28;20374;-80
2022/12/14 16:51:44;;;;;;;81.13;40.53;;;-5.50;2.30;;;;;;10400565;28;20208;-77
2022/12/14 16:57:25;;;;;;;52.70;27.10;;;-5.50;1.00;;;;;;10400310;28;20242;-77
2022/12/14 17:03:02;;;;;;;58.40;27.77;;;-5.50;1.70;;;;;;10400340;28;20272;-80
2022/12/14 17:08:23;;;;;;;50.47;26.37;;;-5.50;1.00;;;;;;10399251;28;20280;-81
2022/12/14 17:13:44;;;;;;;57.97;29.97;;;-5.60;98.40;;;;;;10399992;28;20208;-81
2022/12/14 17:19:06;;;;;;;53.47;27.57;;;-5.70;65.80;;;;;;10400750;28;20193;-79
2022/12/14 17:24:28;;;;;;;55.63;28.77;;;-5.70;16.50;;;;;;10398747;28;20536;-79
2022/12/14 17:29:49;;;;;;;55.90;27.80;;;-5.80;11.20;;;;;;10399224;28;20221;-80
2022/12/14 17:35:17;;;;;;;52.60;28.47;;;-5.80;1.00;;;;;;10385193;28;20491;-80
2022/12/14 17:40:38;;;;;;;65.77;30.23;;;-5.80;16.10;;;;;;10398957;28;20208;-81
2022/12/14 17:46:01;;;;;;;69.33;33.63;;;-5.90;94.10;;;;;;10398214;28;20216;-80
2022/12/14 17:51:28;;;;;;;77.30;37.03;;;-5.90;1.00;;;;;;10399434;28;20413;-80
2022/12/14 17:56:49;;;;;;;79.47;35.73;;;-5.90;1.00;;;;;;10397658;28;20530;-80
2022/12/14 18:02:34;;;;;;;78.53;33.83;;;-6.00;1.00;;;;;;10384285;28;20364;-80
2022/12/14 18:07:56;;;;;;;119.87;42.97;;;-6.00;1.00;;;;;;10383025;28;20229;-79
2022/12/14 18:13:17;;;;;;;107.93;43.13;;;-6.00;99.90;;;;;;10397351;28;20220;-80
2022/12/14 18:18:39;;;;;;;91.87;40.07;;;-6.00;1.00;;;;;;10397014;28;20217;-80
2022/12/14 18:24:00;;;;;;;98.90;44.77;;;-6.00;1.00;;;;;;10369335;28;20225;-80
2022/12/14 18:29:21;;;;;;;102.30;41.57;;;-5.90;1.00;;;;;;10396527;28;20238;-81
2022/12/14 18:34:43;;;;;;;85.43;42.03;;;-5.90;1.00;;;;;;10382589;28;20228;-80
2022/12/14 18:40:05;;;;;;;98.37;42.33;;;-5.90;1.00;;;;;;10382790;28;20205;-81
2022/12/14 18:45:29;;;;;;;110.60;45.87;;;-5.70;1.00;;;;;;10395831;28;20263;-81
2022/12/14 18:50:51;;;;;;;93.70;41.60;;;-5.70;1.00;;;;;;10397443;28;20196;-79
2022/12/14 18:56:12;;;;;;;74.50;35.83;;;-5.60;1.00;;;;;;10395814;28;20421;-80
2022/12/14 19:01:33;;;;;;;83.00;37.93;;;-5.70;65.70;;;;;;10382080;28;20414;-77
2022/12/14 19:06:55;;;;;;;82.77;40.60;;;-5.80;33.10;;;;;;10374525;28;20225;-79
2022/12/14 19:12:16;;;;;;;90.73;45.57;;;-5.80;99.90;;;;;;10395005;28;20203;-78
2022/12/14 19:17:37;;;;;;;79.60;37.97;;;-5.80;99.90;;;;;;10367473;28;20196;-80
2022/12/14 19:22:58;;;;;;;79.33;38.07;;;-5.80;1.00;;;;;;10395564;28;20188;-79
2022/12/14 19:28:19;;;;;;;85.40;40.50;;;-5.90;95.30;;;;;;10393888;28;20196;-79
2022/12/14 19:33:52;;;;;;;79.70;36.77;;;-5.90;50.50;;;;;;10394584;28;20189;-79
2022/12/14 19:39:13;;;;;;;73.73;34.53;;;-5.90;1.00;;;;;;10394607;28;20196;-79
2022/12/14 19:44:34;;;;;;;74.73;35.17;;;-5.90;1.00;;;;;;10395278;28;20289;-79
2022/12/14 19:49:56;;;;;;;85.67;41.23;;;-5.90;99.90;;;;;;10380599;28;20542;-81
2022/12/14 19:55:17;;;;;;;110.10;50.10;;;-5.90;1.00;;;;;;10395079;28;20193;-81
2022/12/14 20:00:38;;;;;;;108.63;48.23;;;-5.80;15.70;;;;;;10395606;28;20192;-79
2022/12/14 20:05:59;;;;;;;99.63;47.13;;;-5.90;1.00;;;;;;10395044;28;20284;-80
2022/12/14 20:11:20;;;;;;;109.13;48.73;;;-5.90;1.00;;;;;;10380348;28;20276;-80
2022/12/14 20:16:41;;;;;;;115.20;50.90;;;-5.90;1.00;;;;;;10383054;28;20193;-81
2022/12/14 20:22:03;;;;;;;106.83;47.33;;;-6.20;1.00;;;;;;10392782;28;20193;-79
2022/12/14 20:27:24;;;;;;;97.47;43.90;;;-6.30;1.00;;;;;;10394768;28;20217;-78
2022/12/14 20:32:45;;;;;;;99.00;43.23;;;-6.30;12.00;;;;;;10395686;28;20224;-79
2022/12/14 20:38:07;;;;;;;107.80;44.13;;;-6.30;1.00;;;;;;10387502;28;20203;-80
2022/12/14 20:43:32;;;;;;;104.00;47.40;;;-6.20;1.00;;;;;;10400917;28;20193;-81
2022/12/14 20:48:55;;;;;;;93.37;42.10;;;-6.30;1.00;;;;;;10387324;28;20280;-80
2022/12/14 20:54:18;;;;;;;87.70;41.20;;;-6.30;99.90;;;;;;10400699;28;20228;-80
2022/12/14 20:59:40;;;;;;;78.43;36.07;;;-6.40;1.00;;;;;;10400592;28;20259;-80
2022/12/14 21:05:01;;;;;;;82.90;36.93;;;-6.40;99.90;;;;;;10399666;28;20235;-80
2022/12/14 21:10:22;;;;;;;83.27;38.43;;;-6.50;99.90;;;;;;10401098;28;20220;-80
2022/12/14 21:15:43;;;;;;;91.40;41.57;;;-6.60;1.00;;;;;;10368401;28;20619;-81
2022/12/14 21:21:06;;;;;;;115.93;53.57;;;-6.50;1.00;;;;;;10381185;28;20197;-78
2022/12/14 21:26:27;;;;;;;105.67;50.40;;;-6.50;1.00;;;;;;10385373;28;20225;-81
2022/12/14 21:31:49;;;;;;;103.37;50.97;;;-6.50;99.90;;;;;;10385351;28;20251;-79
2022/12/14 21:37:10;;;;;;;103.23;51.67;;;-6.50;1.00;;;;;;10361729;28;20277;-79
2022/12/14 21:42:31;;;;;;;111.17;50.93;;;-6.50;1.00;;;;;;10364309;28;20185;-79
2022/12/14 21:47:53;;;;;;;99.90;46.97;;;-6.50;1.00;;;;;;10399826;28;20247;-79
2022/12/14 21:53:13;;;;;;;111.70;50.53;;;-6.60;29.10;;;;;;10397763;28;20239;-79
2022/12/14 21:58:35;;;;;;;114.77;51.37;;;-6.60;1.00;;;;;;10384788;28;20259;-80
2022/12/14 22:03:56;;;;;;;113.30;49.10;;;-6.70;99.90;;;;;;10397676;28;20367;-78
2022/12/14 22:09:18;;;;;;;119.37;50.57;;;-6.70;1.00;;;;;;10358549;28;20224;-79
2022/12/14 22:14:40;;;;;;;178.77;61.47;;;-6.70;1.00;;;;;;10378484;28;20243;-79
2022/12/14 22:20:01;;;;;;;168.53;67.43;;;-6.80;1.00;;;;;;10398240;28;20200;-78
2022/12/14 22:25:22;;;;;;;176.90;66.67;;;-6.90;1.00;;;;;;10391355;28;20221;-79
2022/12/14 22:30:43;;;;;;;177.07;66.80;;;-7.00;99.90;;;;;;10396836;28;20279;-79
2022/12/14 22:36:04;;;;;;;190.97;69.90;;;-7.10;1.00;;;;;;10396720;28;20220;-79
2022/12/14 22:41:26;;;;;;;199.97;74.90;;;-7.10;1.00;;;;;;10396649;28;20228;-79
2022/12/14 22:46:48;;;;;;;212.00;78.93;;;-7.10;1.00;;;;;;10397511;28;20217;-80
2022/12/14 22:52:09;;;;;;;223.03;88.77;;;-7.10;1.00;;;;;;10396154;28;20216;-80
2022/12/14 22:57:35;;;;;;;232.27;97.17;;;-7.10;1.00;;;;;;10341154;28;20197;-79
2022/12/14 23:02:56;;;;;;;231.93;98.63;;;-7.10;99.90;;;;;;10373340;28;20386;-79
2022/12/14 23:08:18;;;;;;;246.53;96.97;;;-7.10;1.00;;;;;;10396639;28;20228;-79
